Web Počasí Slunečno.cz™ (Podmínky, ePrivacy) používá cookies a personalizace pro reklamní účely. Pohybem po stránce vyjadřujete souhlas. Odejít

Aktuální počasí v Česku a ve světě - METAR

Seznam meteostanic umístěných nejčasteji na letišti v ČR a ve světě

Vyhledat místa podle abecedy:
A B C D E F G H I J K L M N O P Q R S T U V W X Y Z

Filtrovat:

ID stanice:
a/nebo
Název místa (fulltext):
 
Místo (ID)Naposledy načteno 
Liberec (Liberec) 06.12.2021 20:00 UTC Zobrazit data
Místo: Liberec
Teplota: -3 °C (pocitová: -8 °C)
Vítr: 1 m/s z(e) 280°
Počasí: zataženo
Dohlednost: 11 km
Zákl. oblačnosti: 8/8 1410 m
Vlhkost: 93%
Luká (Luka) 06.12.2021 20:00 UTC Zobrazit data
Místo: Luká
Teplota: -3 °C (pocitová: -11.3 °C)
Vítr: 3 m/s z(e) 310°
Počasí: skoro zataženo
Dohlednost: 22 km
Zákl. oblačnosti: 1/8 450 m;7/8 900 m
Vlhkost: 93%
Lysá Hora (Lysa Hora) 05.12.2021 00:00 UTC Zobrazit data
Místo: Lysá Hora
Teplota: -7 °C (pocitová: -23.2 °C)
Vítr: 13 m/s z(e) 170°
Počasí: déšť
Dohlednost: 19 km
Zákl. oblačnosti: 8/8 240 m
Vlhkost: 100%
L'viv (UKLL) 13.12.2012 15:00 UTC  
La Palma (GCLA) 06.12.2021 20:00 UTC Zobrazit METAR
GCLA 062000Z 01010KT 340V050 9999 FEW035 BKN050 19/14 Q1024
La Paz (SLLP) 06.12.2021 18:00 UTC Zobrazit METAR
SLLP 061800Z 09007KT 030V150 9999 SCT017 FEW020 SCT070 BKN200 12/05 Q1038
Laayoune (GMML) 06.12.2021 20:00 UTC Zobrazit METAR
GMML 062000Z 02009KT CAVOK 15/15 Q1022 NOSIG
Larnaca (LCLK) 06.12.2021 20:00 UTC Zobrazit METAR
LCLK 062000Z 07007KT 9999 FEW022 SCT050 19/16 Q1018 NOSIG
Leipzig-Halle (EDDP) 06.12.2021 19:50 UTC Zobrazit METAR
EDDP 061950Z 14006KT 9999 BKN017 00/M02 Q1013 NOSIG
Libreville (FOOL) 06.12.2021 15:00 UTC Zobrazit METAR
FOOL 061500Z 17006KT 8000 SCT010 BKN030 26/24 Q1009 NOSIG
Liege (EBLG) 06.12.2021 19:50 UTC Zobrazit METAR
EBLG 061950Z 16011KT 130V190 3500 -SN SCT005 BKN006 01/M00 Q1005 TEMPO 2500 SNRA
Liepaja (EVLA) 06.12.2021 19:50 UTC Zobrazit METAR
EVLA 061950Z AUTO 08003KT 9999 ///////// M17/M19 Q1017
Lille (LFQQ) 06.12.2021 20:00 UTC Zobrazit METAR
LFQQ 062000Z AUTO 26009KT 9999 BKN031 BKN120 BKN150 04/04 Q1005 NOSIG
Lilongwe (FWLI) 04.06.2013 21:00 UTC Zobrazit METAR
FWLI 042100Z 05003KT CAVOK 14/11 Q1023 NOSIG
Lima - Callao (SPIM) 07.06.2019 22:00 UTC Zobrazit METAR
SPIM 072200Z /////KT 9999 BKN035 18/15 Q1015 RMK PP000
Limnos (LGLM) 06.12.2021 19:50 UTC Zobrazit METAR
LGLM 061950Z 18015G25KT 9999 FEW025 16/14 Q1005
Linz (LOWL) 06.12.2021 19:50 UTC Zobrazit METAR
LOWL 061950Z AUTO 24002KT 9999 FEW013 BKN022 01/M01 Q1014 NOSIG
Lisbon (LPPT) 06.12.2021 20:00 UTC Zobrazit METAR
LPPT 062000Z 23004KT 9999 FEW007 BKN010 13/13 Q1028
Liverpool (EGGP) 06.12.2021 19:50 UTC Zobrazit METAR
EGGP 061950Z 26017KT 9999 -SHRA SCT027 BKN041 05/02 Q1004
Ljubljana (LJLJ) 06.12.2021 20:00 UTC Zobrazit METAR
LJLJ 062000Z 30003KT 280V350 4000 BR OVC002 M00/M01 Q1012 NOSIG
Lome (DXXX) 06.12.2021 20:00 UTC Zobrazit METAR
DXXX 062000Z 22012KT 9999 FEW013 29/26 Q1012 NOSIG
London (EGLL) 06.12.2021 16:50 UTC Zobrazit METAR
EGLL 061650Z AUTO 28012G22KT 9999 FEW029 SCT044 07/04 Q1005
Luanda (FNLU) 06.12.2021 20:00 UTC Zobrazit METAR
FNLU 062000Z 13005KT 9999 FEW020 BKN080 25/23 Q1011
Lulea (ESPA) 06.12.2021 19:50 UTC Zobrazit METAR
ESPA 061950Z 35006KT 9999 -SHSN BKN002 OVC005 M17/M19 Q1023
Lusaka (FLLS) 13.01.2014 07:00 UTC Zobrazit METAR
FLLS 130700Z 36009KT CAVOK 25/20 Q1019
Luxembourg Airport (ELLX) 06.12.2021 19:50 UTC Zobrazit METAR
ELLX 061950Z 18011KT 4500 -SN BR SCT005 BKN007 BKN009 01/00 Q1008 NOSIG
Lyon (LFLL) 06.12.2021 20:00 UTC Zobrazit METAR
LFLL 062000Z 17004KT 9999 FEW035 BKN080 03/01 Q1016 NOSIG
Reklama

Reklama


Newslettter

Počasí na Váš email

Každý den Vám pošleme předpověď
Emaily chodí ráno a bez reklamy



Odhlásit newsletter

Reklama